Time;durP1;ratioP1;P1;durP2;ratioP2;P2;SDS_P1;SDS_P2;PMS_P1;PMS_P2;Temp;Humidity;BMP_temperature;BMP_pressure;BME280_temperature;BME280_humidity;BME280_pressure;Samples;Min_cycle;Max_cycle;Signal;HPM_P1;HPM_P2
2022/10/11 00:01:46;;;;;;;;;;;17.20;73.90;;;;;;5033895;27;91225;-51
2022/10/11 00:04:12;;;;;;;;;;;17.20;74.30;;;;;;5038729;27;91771;-53
2022/10/11 00:06:37;;;;;;;;;;;17.10;74.20;;;;;;5021755;27;90651;-55
2022/10/11 00:09:04;;;;;;;;;;;17.20;73.80;;;;;;5040684;27;90239;-53
2022/10/11 00:11:29;;;;;;;;;;;17.10;74.10;;;;;;5020418;27;90358;-53
2022/10/11 00:13:55;;;;;;;;;;;17.20;74.00;;;;;;5048519;27;89433;-53
2022/10/11 00:16:21;;;;;;;;;;;17.20;73.70;;;;;;5038221;27;90367;-52
2022/10/11 00:18:46;;;;;;;;;;;17.10;73.70;;;;;;5030880;27;94253;-54
2022/10/11 00:21:13;;;;;;;;;;;17.10;73.90;;;;;;5032854;27;92046;-53
2022/10/11 00:23:38;;;;;;;;;;;17.10;73.60;;;;;;5051433;27;90983;-52
2022/10/11 00:26:06;;;;;;;;;;;17.10;73.60;;;;;;5043551;27;91993;-52
2022/10/11 00:28:32;;;;;;;;;;;17.00;74.10;;;;;;5047137;27;94067;-52
2022/10/11 00:30:57;;;;;;;;;;;17.00;74.10;;;;;;5038747;27;91632;-50
2022/10/11 00:33:23;;;;;;;;;;;17.00;74.30;;;;;;5039828;27;92228;-53
2022/10/11 00:35:48;;;;;;;;;;;17.00;74.20;;;;;;5045631;27;91313;-52
2022/10/11 00:38:14;;;;;;;;;;;17.00;74.20;;;;;;5055092;27;93740;-49
2022/10/11 00:40:40;;;;;;;;;;;17.00;74.10;;;;;;5050339;27;93204;-51
2022/10/11 00:43:25;;;;;;;;;;;17.10;73.70;;;;;;5034509;27;92677;-53
2022/10/11 00:45:54;;;;;;;;;;;17.00;73.70;;;;;;5035295;27;98634;-53
2022/10/11 00:48:21;;;;;;;;;;;17.00;73.70;;;;;;5046707;27;90446;-54
2022/10/11 00:50:47;;;;;;;;;;;17.00;73.80;;;;;;5044242;27;89997;-54
2022/10/11 00:53:13;;;;;;;;;;;16.90;73.70;;;;;;5047281;27;89953;-54
2022/10/11 00:55:47;;;;;;;;;;;16.90;73.50;;;;;;5048593;27;91190;-54
2022/10/11 00:58:12;;;;;;;;;;;16.90;73.70;;;;;;5058174;27;89924;-51
2022/10/11 01:00:38;;;;;;;;;;;16.90;73.40;;;;;;5046735;27;94063;-52
2022/10/11 01:03:04;;;;;;;;;;;16.90;73.70;;;;;;5044202;27;89494;-53
2022/10/11 01:05:30;;;;;;;;;;;16.90;73.60;;;;;;5030329;27;90889;-53
2022/10/11 01:07:56;;;;;;;;;;;16.80;73.50;;;;;;5048913;27;91790;-53
2022/10/11 01:10:22;;;;;;;;;;;16.90;73.90;;;;;;5024519;27;90457;-53
2022/10/11 01:12:57;;;;;;;;;;;16.80;73.40;;;;;;5032143;27;89895;-52
2022/10/11 01:15:30;;;;;;;;;;;16.80;73.70;;;;;;5052874;27;95654;-51
2022/10/11 01:18:01;;;;;;;;;;;16.80;73.70;;;;;;5052298;27;91129;-53
2022/10/11 01:20:39;;;;;;;;;;;16.80;73.80;;;;;;5034061;27;90162;-54
2022/10/11 01:23:30;;;;;;;;;;;16.80;73.50;;;;;;5045941;27;91956;-53
2022/10/11 01:25:58;;;;;;;;;;;16.70;73.60;;;;;;5017633;27;90571;-52
2022/10/11 01:28:39;;;;;;;;;;;16.70;73.70;;;;;;5041478;27;89776;-53
2022/10/11 01:31:14;;;;;;;;;;;16.70;73.60;;;;;;5041261;27;91236;-52
2022/10/11 01:33:54;;;;;;;;;;;16.70;73.40;;;;;;5048717;27;90121;-53
2022/10/11 01:36:26;;;;;;;;;;;16.70;73.70;;;;;;5047714;27;91709;-53
2022/10/11 01:39:15;;;;;;;;;;;16.70;73.90;;;;;;5042098;27;91174;-51
2022/10/11 01:41:45;;;;;;;;;;;16.70;73.60;;;;;;4996502;27;90837;-53
2022/10/11 01:44:12;;;;;;;;;;;16.60;73.50;;;;;;5041839;27;90304;-53
2022/10/11 01:46:37;;;;;;;;;;;16.60;73.70;;;;;;5039698;27;90437;-54
2022/10/11 01:49:06;;;;;;;;;;;16.60;73.40;;;;;;5029074;27;90051;-51
2022/10/11 01:51:34;;;;;;;;;;;16.60;73.50;;;;;;5044341;27;90411;-54
2022/10/11 01:54:15;;;;;;;;;;;16.60;73.70;;;;;;5044019;27;89206;-51
2022/10/11 01:56:52;;;;;;;;;;;16.60;73.60;;;;;;5029954;27;95626;-52
2022/10/11 01:59:27;;;;;;;;;;;16.60;73.20;;;;;;5043184;27;89901;-54
2022/10/11 02:02:11;;;;;;;;;;;16.60;73.60;;;;;;5038405;27;94618;-53
2022/10/11 02:04:42;;;;;;;;;;;16.50;73.60;;;;;;5044727;27;93207;-54
2022/10/11 02:07:16;;;;;;;;;;;16.50;73.30;;;;;;5022341;27;94077;-54
2022/10/11 02:09:57;;;;;;;;;;;16.60;73.40;;;;;;5042897;27;89915;-53
2022/10/11 02:12:26;;;;;;;;;;;16.60;73.40;;;;;;5047676;27;90035;-52
2022/10/11 02:14:52;;;;;;;;;;;16.50;73.50;;;;;;5042679;27;94889;-52
2022/10/11 02:17:20;;;;;;;;;;;16.50;73.20;;;;;;5035774;27;91317;-54
2022/10/11 02:19:49;;;;;;;;;;;16.50;73.10;;;;;;5041816;27;89289;-54
2022/10/11 02:22:18;;;;;;;;;;;16.50;73.40;;;;;;5041416;27;89897;-52
2022/10/11 02:24:45;;;;;;;;;;;16.40;73.10;;;;;;5030406;27;90062;-54
2022/10/11 02:27:11;;;;;;;;;;;16.40;73.20;;;;;;5018022;27;91825;-54
2022/10/11 02:29:37;;;;;;;;;;;16.40;73.50;;;;;;5037105;27;92488;-55
2022/10/11 02:32:04;;;;;;;;;;;16.40;73.20;;;;;;5038831;27;90355;-51
2022/10/11 02:34:39;;;;;;;;;;;16.40;73.30;;;;;;5026741;27;89634;-53
2022/10/11 02:37:14;;;;;;;;;;;16.50;73.40;;;;;;5041203;27;90560;-54
2022/10/11 02:39:45;;;;;;;;;;;16.50;73.40;;;;;;5052226;27;89734;-54
2022/10/11 02:42:17;;;;;;;;;;;16.40;73.00;;;;;;5044809;27;91105;-52
2022/10/11 02:44:45;;;;;;;;;;;16.40;73.10;;;;;;5031461;27;94226;-52
2022/10/11 02:47:11;;;;;;;;;;;16.40;73.20;;;;;;5040406;27;90477;-54
2022/10/11 02:49:37;;;;;;;;;;;16.50;72.70;;;;;;5044003;27;89617;-55
2022/10/11 02:52:03;;;;;;;;;;;16.40;72.80;;;;;;5034844;27;93566;-55
2022/10/11 02:54:29;;;;;;;;;;;16.40;72.80;;;;;;5038154;27;90177;-54
2022/10/11 02:56:54;;;;;;;;;;;16.40;72.80;;;;;;5047507;27;90890;-52
2022/10/11 02:59:20;;;;;;;;;;;16.40;73.10;;;;;;5030307;27;92329;-54
2022/10/11 03:01:45;;;;;;;;;;;16.40;72.80;;;;;;5035750;27;90554;-54
2022/10/11 03:04:11;;;;;;;;;;;16.40;73.10;;;;;;5028600;27;90219;-53
2022/10/11 03:06:36;;;;;;;;;;;16.40;72.80;;;;;;5039376;27;90299;-56
2022/10/11 03:09:02;;;;;;;;;;;16.30;73.00;;;;;;5040708;27;91023;-53
2022/10/11 03:11:27;;;;;;;;;;;16.40;72.90;;;;;;5039853;27;89957;-54
2022/10/11 03:13:53;;;;;;;;;;;16.40;72.70;;;;;;5035156;27;89836;-53
2022/10/11 03:16:19;;;;;;;;;;;16.30;72.80;;;;;;5044064;27;90965;-50
2022/10/11 03:18:44;;;;;;;;;;;16.30;72.80;;;;;;5033679;27;91361;-52
2022/10/11 03:21:10;;;;;;;;;;;16.40;72.40;;;;;;5034629;27;89467;-48
2022/10/11 03:23:35;;;;;;;;;;;16.30;72.50;;;;;;5039497;27;90010;-54
2022/10/11 03:26:01;;;;;;;;;;;16.30;72.70;;;;;;5049149;27;90829;-50
2022/10/11 03:28:26;;;;;;;;;;;16.30;72.80;;;;;;5049999;27;90150;-52
2022/10/11 03:30:52;;;;;;;;;;;16.30;72.80;;;;;;5039440;27;89423;-50
2022/10/11 03:33:18;;;;;;;;;;;16.30;72.50;;;;;;5044125;27;89192;-52
2022/10/11 03:35:44;;;;;;;;;;;16.30;72.70;;;;;;5037830;27;95268;-52
2022/10/11 03:38:14;;;;;;;;;;;16.30;72.40;;;;;;5040280;27;89517;-52
2022/10/11 03:40:40;;;;;;;;;;;16.30;72.40;;;;;;5019695;27;92431;-51
2022/10/11 03:43:06;;;;;;;;;;;16.30;72.30;;;;;;5031022;27;89952;-52
2022/10/11 03:45:31;;;;;;;;;;;16.30;72.30;;;;;;5037540;27;90613;-54
2022/10/11 03:47:57;;;;;;;;;;;16.20;72.40;;;;;;5038715;27;90258;-53
2022/10/11 03:50:23;;;;;;;;;;;16.20;72.50;;;;;;5045147;27;89924;-52
2022/10/11 03:52:49;;;;;;;;;;;16.20;72.40;;;;;;5050113;27;90264;-53
2022/10/11 03:55:15;;;;;;;;;;;16.20;72.20;;;;;;5039833;27;90812;-54
2022/10/11 03:57:40;;;;;;;;;;;16.20;72.10;;;;;;5041081;27;91621;-53
2022/10/11 04:00:06;;;;;;;;;;;16.20;72.00;;;;;;5033125;27;89579;-52
2022/10/11 04:02:32;;;;;;;;;;;16.20;72.30;;;;;;5038836;27;89949;-53
2022/10/11 04:04:57;;;;;;;;;;;16.20;72.10;;;;;;5033643;27;94645;-52
2022/10/11 04:07:23;;;;;;;;;;;16.20;72.10;;;;;;5041622;27;90262;-53
2022/10/11 04:09:48;;;;;;;;;;;16.20;72.30;;;;;;5043570;27;91273;-53
2022/10/11 04:12:14;;;;;;;;;;;16.30;72.20;;;;;;5044377;27;91268;-54
2022/10/11 04:14:39;;;;;;;;;;;16.30;71.80;;;;;;5043837;27;89706;-52
2022/10/11 04:17:05;;;;;;;;;;;16.20;72.00;;;;;;5043455;27;98325;-51
2022/10/11 04:19:30;;;;;;;;;;;16.20;71.90;;;;;;5053422;27;89722;-53
2022/10/11 04:21:56;;;;;;;;;;;16.20;72.00;;;;;;5051065;27;89467;-55
2022/10/11 04:24:21;;;;;;;;;;;16.20;72.20;;;;;;5040548;27;90638;-54
2022/10/11 04:26:47;;;;;;;;;;;16.10;72.20;;;;;;5053056;27;89975;-53
2022/10/11 04:29:13;;;;;;;;;;;16.10;72.10;;;;;;5050191;27;90776;-54
2022/10/11 04:31:38;;;;;;;;;;;16.10;72.50;;;;;;5036071;27;91121;-54
2022/10/11 04:34:04;;;;;;;;;;;16.10;72.40;;;;;;5053004;27;89854;-53
2022/10/11 04:36:31;;;;;;;;;;;16.10;72.10;;;;;;5050197;27;96557;-53
2022/10/11 04:38:57;;;;;;;;;;;16.10;71.80;;;;;;5027281;27;93152;-51
2022/10/11 04:41:23;;;;;;;;;;;16.10;72.40;;;;;;5035585;27;89623;-53
2022/10/11 04:43:48;;;;;;;;;;;16.10;72.20;;;;;;5045853;27;90389;-52
2022/10/11 04:46:14;;;;;;;;;;;16.10;71.90;;;;;;5055654;27;91186;-52
2022/10/11 04:48:39;;;;;;;;;;;16.00;72.20;;;;;;5035506;27;89835;-53
2022/10/11 04:51:08;;;;;;;;;;;16.10;72.20;;;;;;5053890;27;89751;-54
2022/10/11 04:53:33;;;;;;;;;;;16.10;71.80;;;;;;5041323;27;91187;-53
2022/10/11 04:56:00;;;;;;;;;;;16.10;72.00;;;;;;5053141;27;91113;-54
2022/10/11 04:58:27;;;;;;;;;;;16.10;72.10;;;;;;5027390;27;92211;-52
2022/10/11 05:00:53;;;;;;;;;;;16.00;72.30;;;;;;5043186;27;89597;-54
2022/10/11 05:03:18;;;;;;;;;;;16.00;72.20;;;;;;5045438;27;90156;-53
2022/10/11 05:05:43;;;;;;;;;;;16.10;71.90;;;;;;5043817;27;91278;-53
2022/10/11 05:08:10;;;;;;;;;;;16.10;71.70;;;;;;5039351;27;89738;-53
2022/10/11 05:10:35;;;;;;;;;;;16.10;71.90;;;;;;5039190;27;90804;-53
2022/10/11 05:13:01;;;;;;;;;;;16.10;71.90;;;;;;5038681;27;90484;-51
2022/10/11 05:15:26;;;;;;;;;;;16.10;71.70;;;;;;5033756;27;90094;-52
2022/10/11 05:17:52;;;;;;;;;;;16.10;72.30;;;;;;5036299;27;93694;-52
2022/10/11 05:20:17;;;;;;;;;;;16.10;72.30;;;;;;5047371;27;89947;-53
2022/10/11 05:22:43;;;;;;;;;;;16.10;72.20;;;;;;5032652;27;90967;-55
2022/10/11 05:25:08;;;;;;;;;;;16.20;72.30;;;;;;5046568;27;90090;-53
2022/10/11 05:27:34;;;;;;;;;;;16.10;72.40;;;;;;5049574;27;92504;-52
2022/10/11 05:29:59;;;;;;;;;;;16.10;72.30;;;;;;5036529;27;90136;-52
2022/10/11 05:32:25;;;;;;;;;;;16.20;72.40;;;;;;5035617;27;90876;-53
2022/10/11 05:34:50;;;;;;;;;;;16.10;72.10;;;;;;5035557;27;88792;-53
2022/10/11 05:37:16;;;;;;;;;;;16.00;71.90;;;;;;5052696;27;91104;-54
2022/10/11 05:39:41;;;;;;;;;;;16.00;72.00;;;;;;5047681;27;90729;-50
2022/10/11 05:42:07;;;;;;;;;;;16.00;72.10;;;;;;5040544;27;91371;-53
2022/10/11 05:44:32;;;;;;;;;;;16.00;71.80;;;;;;5044445;27;96355;-52
2022/10/11 05:46:58;;;;;;;;;;;16.20;71.20;;;;;;5051220;27;89865;-54
2022/10/11 05:49:24;;;;;;;;;;;16.60;70.40;;;;;;5034855;27;90061;-52
2022/10/11 05:51:52;;;;;;;;;;;16.60;69.10;;;;;;5036572;27;93095;-52
2022/10/11 05:54:17;;;;;;;;;;;16.50;69.30;;;;;;5035968;27;89791;-53
2022/10/11 05:56:43;;;;;;;;;;;16.50;69.10;;;;;;5055937;27;89962;-52
2022/10/11 05:59:09;;;;;;;;;;;16.60;68.40;;;;;;5056948;27;90331;-51
2022/10/11 06:01:34;;;;;;;;;;;16.80;67.70;;;;;;5049533;27;90671;-52
2022/10/11 06:04:00;;;;;;;;;;;16.80;67.60;;;;;;5032176;27;89901;-52
2022/10/11 06:06:25;;;;;;;;;;;16.80;67.30;;;;;;5022840;27;92678;-53
2022/10/11 06:08:51;;;;;;;;;;;16.80;67.30;;;;;;5042680;27;90428;-52
2022/10/11 06:11:18;;;;;;;;;;;16.90;66.90;;;;;;5038853;27;90287;-48
2022/10/11 06:13:44;;;;;;;;;;;16.90;66.90;;;;;;5045812;27;89445;-52
2022/10/11 06:16:09;;;;;;;;;;;16.90;66.60;;;;;;5053721;27;89980;-53
2022/10/11 06:18:35;;;;;;;;;;;16.80;66.90;;;;;;5043092;27;89567;-53
2022/10/11 06:21:01;;;;;;;;;;;16.90;66.50;;;;;;5043217;27;90462;-49
2022/10/11 06:23:27;;;;;;;;;;;17.00;66.40;;;;;;5044886;27;89332;-53
2022/10/11 06:26:00;;;;;;;;;;;16.90;66.50;;;;;;5056158;27;93462;-51
2022/10/11 06:28:26;;;;;;;;;;;17.00;66.10;;;;;;5048156;27;89899;-51
2022/10/11 06:30:52;;;;;;;;;;;17.00;66.10;;;;;;5046646;27;91890;-52
2022/10/11 06:33:18;;;;;;;;;;;17.10;66.00;;;;;;5045020;27;89971;-51
2022/10/11 06:35:43;;;;;;;;;;;17.00;65.70;;;;;;5049013;27;90246;-51
2022/10/11 06:38:09;;;;;;;;;;;17.10;65.40;;;;;;5047113;27;90010;-52
2022/10/11 06:40:34;;;;;;;;;;;17.00;65.50;;;;;;5056607;27;90028;-50
2022/10/11 06:43:00;;;;;;;;;;;17.10;65.50;;;;;;5054019;27;89626;-53
2022/10/11 06:45:25;;;;;;;;;;;17.10;65.20;;;;;;5049657;27;90000;-52
2022/10/11 06:47:51;;;;;;;;;;;17.10;65.30;;;;;;5049360;27;89307;-49
2022/10/11 06:50:16;;;;;;;;;;;17.20;65.00;;;;;;5046851;27;90124;-49
2022/10/11 06:52:42;;;;;;;;;;;17.30;64.50;;;;;;5063022;27;89944;-50
2022/10/11 06:55:07;;;;;;;;;;;17.30;64.60;;;;;;5037740;27;92493;-52
2022/10/11 06:57:33;;;;;;;;;;;17.20;64.80;;;;;;5034983;27;96143;-52
2022/10/11 06:59:58;;;;;;;;;;;17.20;64.80;;;;;;5044279;27;93724;-52
2022/10/11 07:02:24;;;;;;;;;;;17.30;64.50;;;;;;5040640;27;89848;-48
2022/10/11 07:04:50;;;;;;;;;;;17.20;64.60;;;;;;5030134;27;89997;-51
2022/10/11 07:07:15;;;;;;;;;;;17.20;64.50;;;;;;5040246;27;92317;-50
2022/10/11 07:09:41;;;;;;;;;;;17.20;64.80;;;;;;5047576;27;90294;-50
2022/10/11 07:12:06;;;;;;;;;;;17.20;64.70;;;;;;5041238;27;90436;-49
2022/10/11 07:14:32;;;;;;;;;;;17.30;64.30;;;;;;5046551;27;91102;-50
2022/10/11 07:16:57;;;;;;;;;;;17.30;64.40;;;;;;5034196;27;89771;-53
2022/10/11 07:19:23;;;;;;;;;;;17.20;64.50;;;;;;5039677;27;95673;-51
2022/10/11 07:21:49;;;;;;;;;;;17.30;64.20;;;;;;5045754;27;90340;-50
2022/10/11 07:24:14;;;;;;;;;;;17.30;64.00;;;;;;5043436;27;89852;-51
2022/10/11 07:26:40;;;;;;;;;;;17.30;64.30;;;;;;5053253;27;91497;-51
2022/10/11 07:29:07;;;;;;;;;;;17.40;63.90;;;;;;5037643;27;90550;-48
2022/10/11 07:31:32;;;;;;;;;;;17.40;64.00;;;;;;5042678;27;93310;-49
2022/10/11 07:33:58;;;;;;;;;;;17.40;63.80;;;;;;5033617;27;90052;-49
2022/10/11 07:36:24;;;;;;;;;;;17.50;63.90;;;;;;5045509;27;89675;-50
2022/10/11 07:38:49;;;;;;;;;;;17.50;63.60;;;;;;5044437;27;89458;-52
2022/10/11 07:41:15;;;;;;;;;;;17.60;63.40;;;;;;5043110;27;89871;-49
2022/10/11 07:43:42;;;;;;;;;;;17.50;63.30;;;;;;5054483;27;90420;-50
2022/10/11 07:46:09;;;;;;;;;;;17.50;63.60;;;;;;5036515;27;90747;-49
2022/10/11 07:48:35;;;;;;;;;;;17.50;63.60;;;;;;5048124;27;91051;-49
2022/10/11 07:51:01;;;;;;;;;;;17.50;63.40;;;;;;5036318;27;90068;-51
2022/10/11 07:53:27;;;;;;;;;;;17.60;63.60;;;;;;5049387;27;90202;-52
2022/10/11 07:55:52;;;;;;;;;;;17.60;63.20;;;;;;5043699;27;91912;-52
2022/10/11 07:58:18;;;;;;;;;;;17.60;63.30;;;;;;5037889;27;89606;-47
2022/10/11 08:00:43;;;;;;;;;;;17.60;63.40;;;;;;5035639;27;92479;-51
2022/10/11 08:03:10;;;;;;;;;;;17.50;63.60;;;;;;5048205;27;90460;-51
2022/10/11 08:05:36;;;;;;;;;;;17.50;63.60;;;;;;5032131;27;94256;-52
2022/10/11 08:08:02;;;;;;;;;;;17.60;63.60;;;;;;5029364;27;92014;-52
2022/10/11 08:10:27;;;;;;;;;;;17.60;63.70;;;;;;5044617;27;89882;-49
2022/10/11 08:12:53;;;;;;;;;;;17.60;63.80;;;;;;5035021;27;91829;-48
2022/10/11 08:15:19;;;;;;;;;;;17.60;63.80;;;;;;5043735;27;91358;-49
2022/10/11 08:17:45;;;;;;;;;;;17.60;63.70;;;;;;5034694;27;93634;-50
2022/10/11 08:20:10;;;;;;;;;;;17.60;63.70;;;;;;5046128;27;89955;-51
2022/10/11 08:22:36;;;;;;;;;;;17.60;63.50;;;;;;5047870;27;90352;-52
2022/10/11 08:25:02;;;;;;;;;;;17.60;63.80;;;;;;5032480;27;90034;-47
2022/10/11 08:27:27;;;;;;;;;;;17.60;63.70;;;;;;5053678;27;90110;-49
2022/10/11 08:29:53;;;;;;;;;;;17.70;63.50;;;;;;5012065;27;90662;-51
2022/10/11 08:32:18;;;;;;;;;;;17.70;63.50;;;;;;5040082;27;90460;-51
2022/10/11 08:34:44;;;;;;;;;;;17.70;63.70;;;;;;5053127;27;89599;-51
2022/10/11 08:37:09;;;;;;;;;;;17.70;63.60;;;;;;5048671;27;91578;-51
2022/10/11 08:39:35;;;;;;;;;;;17.60;63.60;;;;;;5045346;27;89660;-50
2022/10/11 08:42:00;;;;;;;;;;;17.60;63.70;;;;;;5042644;27;89854;-49
2022/10/11 08:44:52;;;;;;;;;;;17.70;63.70;;;;;;5055584;27;89820;-50
2022/10/11 08:47:24;;;;;;;;;;;17.60;63.90;;;;;;5043551;27;90000;-52
2022/10/11 08:49:49;;;;;;;;;;;17.70;63.90;;;;;;5022436;27;91365;-49
2022/10/11 08:52:20;;;;;;;;;;;17.70;64.00;;;;;;5045284;27;90057;-49
2022/10/11 08:54:53;;;;;;;;;;;17.70;63.90;;;;;;5048665;27;95210;-49
2022/10/11 08:57:21;;;;;;;;;;;17.70;64.10;;;;;;5047001;27;90925;-49
2022/10/11 08:59:57;;;;;;;;;;;17.70;64.20;;;;;;5050068;27;89911;-49
2022/10/11 09:02:35;;;;;;;;;;;17.70;64.30;;;;;;5039476;27;89726;-49
2022/10/11 09:05:01;;;;;;;;;;;17.70;64.30;;;;;;5043062;27;91778;-52
2022/10/11 09:07:34;;;;;;;;;;;17.70;64.50;;;;;;5045662;27;90456;-48
2022/10/11 09:10:00;;;;;;;;;;;17.70;64.60;;;;;;5038239;27;89790;-51
2022/10/11 09:12:45;;;;;;;;;;;17.70;64.80;;;;;;5042072;27;91039;-52
2022/10/11 09:15:14;;;;;;;;;;;17.60;64.90;;;;;;5043790;27;89298;-51
2022/10/11 09:17:58;;;;;;;;;;;17.60;65.30;;;;;;5040863;27;90662;-52
2022/10/11 09:20:37;;;;;;;;;;;17.60;65.30;;;;;;5046876;27;91958;-51
2022/10/11 09:23:08;;;;;;;;;;;17.60;65.20;;;;;;5028214;27;92733;-50
2022/10/11 09:25:43;;;;;;;;;;;17.70;65.30;;;;;;5052730;27;90110;-50
2022/10/11 09:28:20;;;;;;;;;;;17.60;65.60;;;;;;5047600;27;90177;-53
2022/10/11 09:30:48;;;;;;;;;;;17.70;65.40;;;;;;5053320;27;89939;-53
2022/10/11 09:33:32;;;;;;;;;;;17.70;65.60;;;;;;5032435;27;90144;-53
2022/10/11 09:35:58;;;;;;;;;;;17.70;65.70;;;;;;5051774;27;90395;-49
2022/10/11 09:38:36;;;;;;;;;;;17.70;65.80;;;;;;5051439;27;94184;-53
2022/10/11 09:41:06;;;;;;;;;;;17.70;66.00;;;;;;5056212;27;89938;-48
2022/10/11 09:43:32;;;;;;;;;;;17.70;65.70;;;;;;5048762;27;89976;-53
2022/10/11 09:45:57;;;;;;;;;;;17.70;65.80;;;;;;5047779;27;89421;-50
2022/10/11 09:48:27;;;;;;;;;;;17.70;66.00;;;;;;5046808;27;93092;-51
2022/10/11 09:51:00;;;;;;;;;;;17.70;66.20;;;;;;5048770;27;93020;-50
2022/10/11 09:53:44;;;;;;;;;;;17.70;66.10;;;;;;5056688;27;91143;-53
2022/10/11 09:56:10;;;;;;;;;;;17.80;66.10;;;;;;5032488;27;94893;-51
2022/10/11 09:58:37;;;;;;;;;;;17.80;66.10;;;;;;5046581;27;89825;-48
2022/10/11 10:01:04;;;;;;;;;;;17.80;66.20;;;;;;5039419;27;90016;-51
2022/10/11 10:03:31;;;;;;;;;;;17.90;66.20;;;;;;5049272;27;92969;-52
2022/10/11 10:06:06;;;;;;;;;;;17.90;66.30;;;;;;5042315;27;89564;-47
2022/10/11 10:08:32;;;;;;;;;;;17.80;66.50;;;;;;5042713;27;89977;-51
2022/10/11 10:11:00;;;;;;;;;;;17.90;66.50;;;;;;5045939;27;90044;-47
2022/10/11 10:13:25;;;;;;;;;;;17.80;66.50;;;;;;5050398;27;90629;-52
2022/10/11 10:15:52;;;;;;;;;;;17.90;66.60;;;;;;5040796;27;89969;-49
2022/10/11 10:18:41;;;;;;;;;;;17.90;66.70;;;;;;5048328;27;89874;-49
2022/10/11 10:21:09;;;;;;;;;;;17.80;66.80;;;;;;5041841;27;92441;-50
2022/10/11 10:23:36;;;;;;;;;;;17.90;66.70;;;;;;5042391;27;90789;-48
2022/10/11 10:26:31;;;;;;;;;;;17.90;66.80;;;;;;5053868;27;89830;-51
2022/10/11 10:28:56;;;;;;;;;;;17.90;66.90;;;;;;5036200;27;90077;-50
2022/10/11 10:31:29;;;;;;;;;;;17.90;66.90;;;;;;5045924;27;89299;-51
2022/10/11 10:33:55;;;;;;;;;;;17.90;66.80;;;;;;5025131;27;92280;-50
2022/10/11 10:36:29;;;;;;;;;;;18.00;67.00;;;;;;5040171;27;92019;-52
2022/10/11 10:39:00;;;;;;;;;;;18.00;66.90;;;;;;5047123;27;94061;-49
2022/10/11 10:41:26;;;;;;;;;;;18.00;66.80;;;;;;5047139;27;90371;-50
2022/10/11 10:43:54;;;;;;;;;;;18.00;67.00;;;;;;5046642;27;89730;-49
2022/10/11 10:46:22;;;;;;;;;;;18.00;67.00;;;;;;5044605;27;89479;-51
2022/10/11 10:49:00;;;;;;;;;;;18.00;67.10;;;;;;5036877;27;93444;-53
2022/10/11 10:51:28;;;;;;;;;;;18.10;67.30;;;;;;5035407;27;89985;-52
2022/10/11 10:54:20;;;;;;;;;;;18.10;67.20;;;;;;5044868;27;89974;-50
2022/10/11 10:56:50;;;;;;;;;;;18.10;67.10;;;;;;5002817;27;94093;-51
2022/10/11 10:59:34;;;;;;;;;;;18.10;67.10;;;;;;5046583;27;90109;-51
2022/10/11 11:02:09;;;;;;;;;;;18.10;67.20;;;;;;5043081;27;94021;-52
2022/10/11 11:04:35;;;;;;;;;;;18.10;67.40;;;;;;5038092;27;90777;-53
2022/10/11 11:07:11;;;;;;;;;;;18.20;67.40;;;;;;5052248;27;93602;-53
2022/10/11 11:09:46;;;;;;;;;;;18.20;67.40;;;;;;5019095;27;90347;-51
2022/10/11 11:12:24;;;;;;;;;;;18.20;67.30;;;;;;5044018;27;91068;-51
2022/10/11 11:15:10;;;;;;;;;;;18.20;67.40;;;;;;5031936;27;89896;-54
2022/10/11 11:17:44;;;;;;;;;;;18.20;67.40;;;;;;5032732;27;92528;-54
2022/10/11 11:20:21;;;;;;;;;;;18.20;67.30;;;;;;5046785;27;90666;-50
2022/10/11 11:23:07;;;;;;;;;;;18.30;67.00;;;;;;5048185;27;89073;-49
2022/10/11 11:25:47;;;;;;;;;;;18.30;66.90;;;;;;5037661;27;90151;-50
2022/10/11 11:28:51;;;;;;;;;;;18.30;66.90;;;;;;5054156;27;94562;-52
2022/10/11 11:31:20;;;;;;;;;;;18.40;66.80;;;;;;4965379;28;91691;-50
2022/10/11 11:33:54;;;;;;;;;;;18.40;66.80;;;;;;4976669;28;90081;-50
2022/10/11 11:36:25;;;;;;;;;;;18.40;66.90;;;;;;5006430;27;89791;-50
2022/10/11 11:38:55;;;;;;;;;;;18.40;67.00;;;;;;5045570;27;89824;-52
2022/10/11 11:41:26;;;;;;;;;;;18.40;67.00;;;;;;5041502;27;91312;-47
2022/10/11 11:44:03;;;;;;;;;;;18.50;66.90;;;;;;5046017;27;90095;-50
2022/10/11 11:46:33;;;;;;;;;;;18.50;66.90;;;;;;5036021;27;89538;-52
2022/10/11 11:49:01;;;;;;;;;;;18.50;66.80;;;;;;5041118;27;91426;-47
2022/10/11 11:51:32;;;;;;;;;;;18.50;66.70;;;;;;5040399;27;89969;-51
2022/10/11 11:54:14;;;;;;;;;;;18.50;66.60;;;;;;5038920;27;89918;-48
2022/10/11 11:56:42;;;;;;;;;;;18.50;66.70;;;;;;5047709;27;90929;-49
2022/10/11 11:59:24;;;;;;;;;;;18.60;66.60;;;;;;5046400;27;93032;-52
2022/10/11 12:01:50;;;;;;;;;;;18.60;66.60;;;;;;5048078;27;90080;-49
2022/10/11 12:04:27;;;;;;;;;;;18.60;66.50;;;;;;5046253;27;90647;-51
2022/10/11 12:06:58;;;;;;;;;;;18.60;66.50;;;;;;5040463;27;91561;-51
2022/10/11 12:09:24;;;;;;;;;;;18.70;66.40;;;;;;5042179;27;89673;-50
2022/10/11 12:11:53;;;;;;;;;;;18.60;66.50;;;;;;5040216;27;90082;-52
2022/10/11 12:14:30;;;;;;;;;;;18.60;66.50;;;;;;5047447;27;92286;-47
2022/10/11 12:17:05;;;;;;;;;;;18.60;66.30;;;;;;5052841;27;89707;-53
2022/10/11 12:19:30;;;;;;;;;;;18.60;66.40;;;;;;5055147;27;89487;-49
2022/10/11 12:22:15;;;;;;;;;;;18.60;66.30;;;;;;5038771;27;90984;-50
2022/10/11 12:25:10;;;;;;;;;;;18.70;66.30;;;;;;5044741;27;90020;-53
2022/10/11 12:27:36;;;;;;;;;;;18.70;66.20;;;;;;5021809;27;89997;-50
2022/10/11 12:30:02;;;;;;;;;;;18.70;66.10;;;;;;5055975;27;90122;-52
2022/10/11 12:32:34;;;;;;;;;;;18.70;66.20;;;;;;5047453;27;90195;-52
2022/10/11 12:35:18;;;;;;;;;;;18.70;66.10;;;;;;5043041;27;89976;-50
2022/10/11 12:37:48;;;;;;;;;;;18.70;66.00;;;;;;5036476;27;90577;-52
2022/10/11 12:40:34;;;;;;;;;;;18.70;65.90;;;;;;5051009;27;92392;-50
2022/10/11 12:43:09;;;;;;;;;;;18.70;66.00;;;;;;5038053;27;90071;-53
2022/10/11 12:45:34;;;;;;;;;;;18.80;66.00;;;;;;5039418;27;89607;-52
2022/10/11 12:48:05;;;;;;;;;;;18.80;66.00;;;;;;5044252;27;91601;-54
2022/10/11 12:50:36;;;;;;;;;;;18.80;66.00;;;;;;5043513;27;90464;-52
2022/10/11 12:53:17;;;;;;;;;;;18.80;66.10;;;;;;5049585;27;90315;-54
2022/10/11 12:56:22;;;;;;;;;;;18.80;66.00;;;;;;5042807;27;91855;-54
2022/10/11 12:58:47;;;;;;;;;;;18.80;65.90;;;;;;4970324;28;89623;-47
2022/10/11 13:01:13;;;;;;;;;;;18.80;65.90;;;;;;4972190;28;90117;-51
2022/10/11 13:03:41;;;;;;;;;;;18.80;65.90;;;;;;4995245;27;90533;-53
2022/10/11 13:06:20;;;;;;;;;;;18.90;66.00;;;;;;5043174;27;89711;-52
2022/10/11 13:09:11;;;;;;;;;;;18.90;65.90;;;;;;5051093;27;89470;-52
2022/10/11 13:12:00;;;;;;;;;;;18.80;65.80;;;;;;5045865;27;90202;-50
2022/10/11 13:14:26;;;;;;;;;;;18.90;65.90;;;;;;5025226;27;92997;-49
2022/10/11 13:16:59;;;;;;;;;;;18.90;65.90;;;;;;5043689;27;90478;-49
2022/10/11 13:19:25;;;;;;;;;;;18.90;65.80;;;;;;5054453;27;93122;-49
2022/10/11 13:21:53;;;;;;;;;;;19.00;65.90;;;;;;5038515;27;90224;-52
2022/10/11 13:24:19;;;;;;;;;;;19.00;65.80;;;;;;5041337;27;91537;-54
2022/10/11 13:26:46;;;;;;;;;;;19.00;65.90;;;;;;5050938;27;90253;-53
2022/10/11 13:29:11;;;;;;;;;;;19.00;66.00;;;;;;5048564;27;89539;-53
2022/10/11 13:31:38;;;;;;;;;;;19.00;66.00;;;;;;5045474;27;89259;-53
2022/10/11 13:34:04;;;;;;;;;;;19.00;65.90;;;;;;5044631;27;90020;-53
2022/10/11 13:36:30;;;;;;;;;;;19.00;65.80;;;;;;5047010;27;89996;-51
2022/10/11 13:38:57;;;;;;;;;;;19.00;65.60;;;;;;5049555;27;91343;-51
2022/10/11 13:41:26;;;;;;;;;;;19.10;65.30;;;;;;5051226;27;90319;-52
2022/10/11 13:43:53;;;;;;;;;;;19.10;65.00;;;;;;5057139;27;90382;-53
2022/10/11 13:46:21;;;;;;;;;;;19.10;64.60;;;;;;5048109;27;89893;-51
2022/10/11 13:48:55;;;;;;;;;;;19.10;64.30;;;;;;5049755;27;90299;-49
2022/10/11 13:51:33;;;;;;;;;;;19.10;64.00;;;;;;5046501;27;90275;-50
2022/10/11 13:54:00;;;;;;;;;;;19.10;63.90;;;;;;5055865;27;89514;-49
2022/10/11 13:56:28;;;;;;;;;;;19.10;63.90;;;;;;5032749;27;89829;-50
2022/10/11 13:58:54;;;;;;;;;;;19.10;63.60;;;;;;5049866;27;90515;-49
2022/10/11 14:01:19;;;;;;;;;;;19.10;63.70;;;;;;5041588;27;90349;-52
2022/10/11 14:03:47;;;;;;;;;;;19.10;63.60;;;;;;5052718;27;95257;-52
2022/10/11 14:06:12;;;;;;;;;;;19.10;63.80;;;;;;5035886;27;91599;-48
2022/10/11 14:08:42;;;;;;;;;;;19.10;63.70;;;;;;5040855;27;89553;-54
2022/10/11 14:11:09;;;;;;;;;;;19.20;63.70;;;;;;5050494;27;89967;-52
2022/10/11 14:13:36;;;;;;;;;;;19.20;63.70;;;;;;5050716;27;90092;-50
2022/10/11 14:16:04;;;;;;;;;;;19.20;63.60;;;;;;5043710;27;89862;-52
2022/10/11 14:18:49;;;;;;;;;;;19.20;63.40;;;;;;5036071;27;89488;-49
2022/10/11 14:21:33;;;;;;;;;;;19.20;63.10;;;;;;5037382;27;89505;-48
2022/10/11 14:24:01;;;;;;;;;;;19.20;63.00;;;;;;5042968;27;90331;-48
2022/10/11 14:26:30;;;;;;;;;;;19.20;62.80;;;;;;5051419;27;89881;-49
2022/10/11 14:28:57;;;;;;;;;;;19.20;63.00;;;;;;5055982;27;91927;-51